Largo — PFNC — position and weather

sailwx.info

Track history (hours):
 
Tides and Currents Weather Stations Pressure Air Temp Water Temp Dewpoint Dewpoint Depression Visibility Wind Speed Wind Dir Waves Ship Positions

Largo

Last reported at 2017-Apr-24 21:17 UTC. Time now 2017-Apr-27 09:07 UTC.
Position N 39°27' E 001°19'.

Length 91 m; draft 4.8 m.

Type: Cargo ship. MMSI: 245645000.

Date/timePositionNaut miles runAvg speedWind from/ knotsBaromVisibWave heightAir tempDewpointWater temp
2017-Apr-24 21:17N 39°27' E 001°19'2 8.6
2017-Apr-24 21:00N 39°25' E 001°22'4 8.8
2017-Apr-24 20:30N 39°23' E 001°27'4 8.8
2017-Apr-24 20:00N 39°21' E 001°31'4 8.7
2017-Apr-24 19:30N 39°19' E 001°36'5 8.5
2017-Apr-24 18:56N 39°17' E 001°42'4 8.5
2017-Apr-24 18:30N 39°15' E 001°46'5 9.0
2017-Apr-24 18:00N 39°13' E 001°51'4 8.6
2017-Apr-24 17:30N 39°11' E 001°56'4 8.5
2017-Apr-24 17:00N 39°09' E 002°01'9 8.5
2017-Apr-24 15:59N 39°04' E 002°11'4 8.5
2017-Apr-24 15:30N 39°03' E 002°15'4 8.5
2017-Apr-24 15:00N 39°00' E 002°20'4 8.6
2017-Apr-24 14:30N 38°58' E 002°25'9 8.5
2017-Apr-24 13:29N 38°54' E 002°35'4 8.6
2017-Apr-24 13:00N 38°52' E 002°39'4 8.5
2017-Apr-24 12:30N 38°50' E 002°44'4 8.6
2017-Apr-24 12:00N 38°48' E 002°49'4 8.5
2017-Apr-24 11:30N 38°46' E 002°54'4 8.5
2017-Apr-24 11:00N 38°44' E 002°58'4 8.4
2017-Apr-24 10:30N 38°42' E 003°03'4 8.6
2017-Apr-24 10:00N 38°40' E 003°08'4 8.5
2017-Apr-24 09:30N 38°38' E 003°13'4 8.4
2017-Apr-24 09:00N 38°36' E 003°17'4 8.4
2017-Apr-24 08:30N 38°34' E 003°22'4 8.5
2017-Apr-24 08:00N 38°32' E 003°27'24 8.5
2017-Apr-24 05:09N 38°20' E 003°54'1 8.6
2017-Apr-24 04:59N 38°20' E 003°56'4 8.6
2017-Apr-24 04:30N 38°18' E 004°00'4 8.6
2017-Apr-24 04:00N 38°16' E 004°05'4 8.6
2017-Apr-24 03:30N 38°14' E 004°10'4 8.5
2017-Apr-24 03:00N 38°12' E 004°15'7 8.4
2017-Apr-24 02:14N 38°08' E 004°22'2 8.5
2017-Apr-24 01:58N 38°07' E 004°24'5 8.5
2017-Apr-24 01:22N 38°05' E 004°30'4 8.5
2017-Apr-24 00:55N 38°03' E 004°34'4 8.6
2017-Apr-24 00:30N 38°01' E 004°38'4 8.5
2017-Apr-24 00:00N 37°59' E 004°43'4 8.6
2017-Apr-23 23:30N 37°57' E 004°48'4 8.6
2017-Apr-23 23:00N 37°55' E 004°53'4 8.6
2017-Apr-23 22:30N 37°53' E 004°57'4 8.5
2017-Apr-23 22:00N 37°51' E 005°02'5 8.5
2017-Apr-23 21:25N 37°49' E 005°08'4 8.4
2017-Apr-23 21:00N 37°47' E 005°12'4 8.4
2017-Apr-23 20:28N 37°45' E 005°17'4 8.4
2017-Apr-23 20:00N 37°43' E 005°21'4 8.5
2017-Apr-23 19:30N 37°41' E 005°26'18 8.6
2017-Apr-23 17:28N 37°32' E 005°45'4 8.9
2017-Apr-23 16:59N 37°30' E 005°50'6 8.9
2017-Apr-23 16:15N 37°27' E 005°57'11 8.7
2017-Apr-23 14:57N 37°22' E 006°09'  
2017-Apr-19 16:39N 38°31' E 003°24'2 8.1
2017-Apr-19 16:23N 38°32' E 003°22'4 8.1
2017-Apr-19 15:57N 38°34' E 003°18'3 8.0
2017-Apr-19 15:31N 38°36' E 003°14'4 7.8
2017-Apr-19 15:00N 38°38' E 003°09'4 7.7
2017-Apr-19 14:30N 38°40' E 003°05'8 7.5
2017-Apr-19 13:30N 38°43' E 002°56'4 7.7
2017-Apr-19 13:00N 38°45' E 002°52'4 7.7
2017-Apr-19 12:30N 38°47' E 002°48'4 7.5
2017-Apr-19 12:00N 38°49' E 002°44'4 7.2
2017-Apr-19 11:30N 38°51' E 002°40'5 7.4
2017-Apr-19 10:48N 38°53' E 002°34'2 7.4
2017-Apr-19 10:30N 38°54' E 002°31'4 7.8
2017-Apr-19 10:01N 38°56' E 002°27'4 7.8
2017-Apr-19 09:30N 38°58' E 002°22'4 7.9
2017-Apr-19 09:00N 38°60' E 002°18'4 7.7
2017-Apr-19 08:31N 39°02' E 002°14'4 8.1
2017-Apr-19 08:00N 39°04' E 002°09'4 8.4
2017-Apr-19 07:30N 39°06' E 002°04'4 8.6
2017-Apr-19 07:00N 39°08' E 001°60'4 8.6
2017-Apr-19 06:30N 39°10' E 001°55'4 8.4
2017-Apr-19 06:00N 39°12' E 001°50'4 8.5
2017-Apr-19 05:30N 39°14' E 001°45'4 8.4
2017-Apr-19 04:59N 39°16' E 001°40'4 8.3
2017-Apr-19 04:30N 39°18' E 001°36'5 8.2
2017-Apr-19 03:57N 39°20' E 001°31'4 8.3
2017-Apr-19 03:30N 39°22' E 001°27'4 8.3
2017-Apr-19 03:01N 39°24' E 001°22'4 8.3
2017-Apr-19 02:30N 39°26' E 001°17'4 8.4
2017-Apr-19 01:58N 39°28' E 001°12'35 8.6
2017-Apr-18 21:54N 39°45' E 000°32'3 8.6
2017-Apr-18 21:30N 39°47' E 000°28'4 8.7
2017-Apr-18 21:00N 39°49' E 000°23'5 8.8
2017-Apr-18 20:28N 39°51' E 000°18'9 8.7
2017-Apr-18 19:25N 39°56' E 000°07'141 3.3
2017-Apr-17 01:19N 37°40' E 000°56'4 8.6
2017-Apr-17 00:53N 37°37' E 000°57'3 8.6
2017-Apr-17 00:29N 37°33' E 000°58'64 2.4
2017-Apr-15 21:34N 36°31' E 001°19'1 0.1
2017-Apr-15 07:02N 36°32' E 001°18'0 0.2
2017-Apr-15 06:34N 36°32' E 001°18'0 0.0
2017-Apr-15 06:22N 36°32' E 001°18'0 0.0
2017-Apr-15 05:58N 36°32' E 001°18'0 0.0
2017-Apr-15 04:52N 36°32' E 001°18'0 0.0
2017-Apr-15 00:22N 36°32' E 001°18'0 0.0
2017-Apr-14 23:58N 36°32' E 001°18'0 0.0
2017-Apr-14 23:16N 36°32' E 001°18'0 0.0
2017-Apr-14 22:52N 36°32' E 001°18'0 1.1
2017-Apr-14 22:30N 36°32' E 001°18'5 9.4
2017-Apr-14 22:00N 36°36' E 001°21'  
Track history (hours):
 
Tides and Currents Weather Stations Pressure Air Temp Water Temp Dewpoint Dewpoint Depression Visibility Wind Speed Wind Dir Waves Ship Positions

Largo

Last reported at 2017-Apr-24 21:17 UTC. Time now 2017-Apr-27 09:07 UTC.
Position N 39°27' E 001°19'.

Length 91 m; draft 4.8 m.

Type: Cargo ship. MMSI: 245645000.

Date/timePositionNaut miles runAvg speedWind from/ knotsBaromVisibWave heightAir tempDewpointWater temp
2017-Apr-24 21:17N 39°27' E 001°19'2 8.6
2017-Apr-24 21:00N 39°25' E 001°22'4 8.8
2017-Apr-24 20:30N 39°23' E 001°27'4 8.8
2017-Apr-24 20:00N 39°21' E 001°31'4 8.7
2017-Apr-24 19:30N 39°19' E 001°36'5 8.5
2017-Apr-24 18:56N 39°17' E 001°42'4 8.5
2017-Apr-24 18:30N 39°15' E 001°46'5 9.0
2017-Apr-24 18:00N 39°13' E 001°51'4 8.6
2017-Apr-24 17:30N 39°11' E 001°56'4 8.5
2017-Apr-24 17:00N 39°09' E 002°01'9 8.5
2017-Apr-24 15:59N 39°04' E 002°11'4 8.5
2017-Apr-24 15:30N 39°03' E 002°15'4 8.5
2017-Apr-24 15:00N 39°00' E 002°20'4 8.6
2017-Apr-24 14:30N 38°58' E 002°25'9 8.5
2017-Apr-24 13:29N 38°54' E 002°35'4 8.6
2017-Apr-24 13:00N 38°52' E 002°39'4 8.5
2017-Apr-24 12:30N 38°50' E 002°44'4 8.6
2017-Apr-24 12:00N 38°48' E 002°49'4 8.5
2017-Apr-24 11:30N 38°46' E 002°54'4 8.5
2017-Apr-24 11:00N 38°44' E 002°58'4 8.4
2017-Apr-24 10:30N 38°42' E 003°03'4 8.6
2017-Apr-24 10:00N 38°40' E 003°08'4 8.5
2017-Apr-24 09:30N 38°38' E 003°13'4 8.4
2017-Apr-24 09:00N 38°36' E 003°17'4 8.4
2017-Apr-24 08:30N 38°34' E 003°22'4 8.5
2017-Apr-24 08:00N 38°32' E 003°27'24 8.5
2017-Apr-24 05:09N 38°20' E 003°54'1 8.6
2017-Apr-24 04:59N 38°20' E 003°56'4 8.6
2017-Apr-24 04:30N 38°18' E 004°00'4 8.6
2017-Apr-24 04:00N 38°16' E 004°05'4 8.6
2017-Apr-24 03:30N 38°14' E 004°10'4 8.5
2017-Apr-24 03:00N 38°12' E 004°15'7 8.4
2017-Apr-24 02:14N 38°08' E 004°22'2 8.5
2017-Apr-24 01:58N 38°07' E 004°24'5 8.5
2017-Apr-24 01:22N 38°05' E 004°30'4 8.5
2017-Apr-24 00:55N 38°03' E 004°34'4 8.6
2017-Apr-24 00:30N 38°01' E 004°38'4 8.5
2017-Apr-24 00:00N 37°59' E 004°43'4 8.6
2017-Apr-23 23:30N 37°57' E 004°48'4 8.6
2017-Apr-23 23:00N 37°55' E 004°53'4 8.6
2017-Apr-23 22:30N 37°53' E 004°57'4 8.5
2017-Apr-23 22:00N 37°51' E 005°02'5 8.5
2017-Apr-23 21:25N 37°49' E 005°08'4 8.4
2017-Apr-23 21:00N 37°47' E 005°12'4 8.4
2017-Apr-23 20:28N 37°45' E 005°17'4 8.4
2017-Apr-23 20:00N 37°43' E 005°21'4 8.5
2017-Apr-23 19:30N 37°41' E 005°26'18 8.6
2017-Apr-23 17:28N 37°32' E 005°45'4 8.9
2017-Apr-23 16:59N 37°30' E 005°50'6 8.9
2017-Apr-23 16:15N 37°27' E 005°57'11 8.7
2017-Apr-23 14:57N 37°22' E 006°09'  
2017-Apr-19 16:39N 38°31' E 003°24'2 8.1
2017-Apr-19 16:23N 38°32' E 003°22'4 8.1
2017-Apr-19 15:57N 38°34' E 003°18'3 8.0
2017-Apr-19 15:31N 38°36' E 003°14'4 7.8
2017-Apr-19 15:00N 38°38' E 003°09'4 7.7
2017-Apr-19 14:30N 38°40' E 003°05'8 7.5
2017-Apr-19 13:30N 38°43' E 002°56'4 7.7
2017-Apr-19 13:00N 38°45' E 002°52'4 7.7
2017-Apr-19 12:30N 38°47' E 002°48'4 7.5
2017-Apr-19 12:00N 38°49' E 002°44'4 7.2
2017-Apr-19 11:30N 38°51' E 002°40'5 7.4
2017-Apr-19 10:48N 38°53' E 002°34'2 7.4
2017-Apr-19 10:30N 38°54' E 002°31'4 7.8
2017-Apr-19 10:01N 38°56' E 002°27'4 7.8
2017-Apr-19 09:30N 38°58' E 002°22'4 7.9
2017-Apr-19 09:00N 38°60' E 002°18'4 7.7
2017-Apr-19 08:31N 39°02' E 002°14'4 8.1
2017-Apr-19 08:00N 39°04' E 002°09'4 8.4
2017-Apr-19 07:30N 39°06' E 002°04'4 8.6
2017-Apr-19 07:00N 39°08' E 001°60'4 8.6
2017-Apr-19 06:30N 39°10' E 001°55'4 8.4
2017-Apr-19 06:00N 39°12' E 001°50'4 8.5
2017-Apr-19 05:30N 39°14' E 001°45'4 8.4
2017-Apr-19 04:59N 39°16' E 001°40'4 8.3
2017-Apr-19 04:30N 39°18' E 001°36'5 8.2
2017-Apr-19 03:57N 39°20' E 001°31'4 8.3
2017-Apr-19 03:30N 39°22' E 001°27'4 8.3
2017-Apr-19 03:01N 39°24' E 001°22'4 8.3
2017-Apr-19 02:30N 39°26' E 001°17'4 8.4
2017-Apr-19 01:58N 39°28' E 001°12'35 8.6
2017-Apr-18 21:54N 39°45' E 000°32'3 8.6
2017-Apr-18 21:30N 39°47' E 000°28'4 8.7
2017-Apr-18 21:00N 39°49' E 000°23'5 8.8
2017-Apr-18 20:28N 39°51' E 000°18'9 8.7
2017-Apr-18 19:25N 39°56' E 000°07'141 3.3
2017-Apr-17 01:19N 37°40' E 000°56'4 8.6
2017-Apr-17 00:53N 37°37' E 000°57'3 8.6
2017-Apr-17 00:29N 37°33' E 000°58'64 2.4
2017-Apr-15 21:34N 36°31' E 001°19'1 0.1
2017-Apr-15 07:02N 36°32' E 001°18'0 0.2
2017-Apr-15 06:34N 36°32' E 001°18'0 0.0
2017-Apr-15 06:22N 36°32' E 001°18'0 0.0
2017-Apr-15 05:58N 36°32' E 001°18'0 0.0
2017-Apr-15 04:52N 36°32' E 001°18'0 0.0
2017-Apr-15 00:22N 36°32' E 001°18'0 0.0
2017-Apr-14 23:58N 36°32' E 001°18'0 0.0
2017-Apr-14 23:16N 36°32' E 001°18'0 0.0
2017-Apr-14 22:52N 36°32' E 001°18'0 1.1
2017-Apr-14 22:30N 36°32' E 001°18'5 9.4
2017-Apr-14 22:00N 36°36' E 001°21'  

Dump ship's entire track history